Time;durP1;ratioP1;P1;durP2;ratioP2;P2;SDS_P1;SDS_P2;PMS_P1;PMS_P2;Temp;Humidity;BMP_temperature;BMP_pressure;BME280_temperature;BME280_humidity;BME280_pressure;Samples;Min_cycle;Max_cycle;Signal;HPM_P1;HPM_P2
2024/01/14 00:01:57;;;;;;;44.50;25.73;;;3.10;99.90;;;;;;6307283;22;20006;-65
2024/01/14 00:04:23;;;;;;;47.63;26.80;;;3.10;99.90;;;;;;6306979;22;20019;-64
2024/01/14 00:06:49;;;;;;;43.50;25.63;;;3.10;99.90;;;;;;6306834;22;20436;-64
2024/01/14 00:09:16;;;;;;;39.30;25.67;;;3.10;99.90;;;;;;6307312;22;20137;-64
2024/01/14 00:11:42;;;;;;;44.30;26.10;;;3.10;99.90;;;;;;6308293;22;20007;-64
2024/01/14 00:14:08;;;;;;;47.43;27.00;;;3.10;99.90;;;;;;6307678;22;20056;-64
2024/01/14 00:16:34;;;;;;;44.77;26.60;;;3.10;99.90;;;;;;6307356;22;20000;-64
2024/01/14 00:19:05;;;;;;;40.83;25.47;;;3.10;99.90;;;;;;6307418;22;20009;-65
2024/01/14 00:21:32;;;;;;;44.30;26.77;;;3.10;99.90;;;;;;6307216;22;19996;-71
2024/01/14 00:23:57;;;;;;;41.70;25.77;;;3.10;99.90;;;;;;6306912;22;20007;-65
2024/01/14 00:26:27;;;;;;;46.10;26.50;;;3.10;99.90;;;;;;6307059;22;20066;-72
2024/01/14 00:28:57;;;;;;;40.73;26.60;;;3.20;99.90;;;;;;6307758;22;20061;-65
2024/01/14 00:31:24;;;;;;;41.80;25.07;;;3.20;99.90;;;;;;6307221;22;20066;-64
2024/01/14 00:33:50;;;;;;;46.83;26.83;;;3.20;99.90;;;;;;6307380;22;19999;-64
2024/01/14 00:36:19;;;;;;;43.43;24.77;;;3.20;99.90;;;;;;6307366;22;20010;-64
2024/01/14 00:38:45;;;;;;;38.27;22.53;;;3.20;99.90;;;;;;6306736;22;20007;-64
2024/01/14 00:41:11;;;;;;;38.97;19.70;;;3.20;99.90;;;;;;6306972;22;20025;-64
2024/01/14 00:43:37;;;;;;;35.07;19.17;;;3.20;99.90;;;;;;6307074;22;20499;-64
2024/01/14 00:46:03;;;;;;;36.47;19.47;;;3.20;99.90;;;;;;6307084;22;19995;-64
2024/01/14 00:48:29;;;;;;;35.00;18.97;;;3.30;99.90;;;;;;6306576;22;20015;-64
2024/01/14 00:50:55;;;;;;;37.87;19.20;;;3.30;99.90;;;;;;6306914;22;20029;-65
2024/01/14 00:53:21;;;;;;;30.47;17.73;;;3.30;99.90;;;;;;6306938;22;20004;-65
2024/01/14 00:55:47;;;;;;;34.10;19.03;;;3.30;99.90;;;;;;6306900;22;20000;-65
2024/01/14 00:58:13;;;;;;;41.20;20.67;;;3.40;99.90;;;;;;6306832;22;20448;-64
2024/01/14 01:00:38;;;;;;;37.27;22.63;;;3.40;99.90;;;;;;6306674;22;20000;-66
2024/01/14 01:03:05;;;;;;;37.57;22.77;;;3.50;99.90;;;;;;6306310;22;20035;-64
2024/01/14 01:05:30;;;;;;;41.83;24.90;;;3.40;99.90;;;;;;6306418;22;20518;-64
2024/01/14 01:07:56;;;;;;;37.40;22.57;;;3.40;99.90;;;;;;6306623;22;20082;-64
2024/01/14 01:10:22;;;;;;;40.67;23.73;;;3.40;99.90;;;;;;6307076;22;20031;-64
2024/01/14 01:12:48;;;;;;;42.10;23.37;;;3.40;99.90;;;;;;6306773;22;20003;-64
2024/01/14 01:15:13;;;;;;;40.07;23.87;;;3.30;99.90;;;;;;6306934;22;20101;-67
2024/01/14 01:17:39;;;;;;;44.27;22.77;;;3.30;99.90;;;;;;6306429;22;19999;-64
2024/01/14 01:20:08;;;;;;;40.50;24.73;;;3.40;99.90;;;;;;6306739;22;20003;-65
2024/01/14 01:22:34;;;;;;;42.57;23.77;;;3.40;99.90;;;;;;6306310;22;20003;-64
2024/01/14 01:24:59;;;;;;;39.63;23.20;;;3.40;99.90;;;;;;6306527;22;20448;-64
2024/01/14 01:27:26;;;;;;;38.33;23.20;;;3.30;99.90;;;;;;6306355;22;19995;-65
2024/01/14 01:29:52;;;;;;;43.97;24.83;;;3.30;99.90;;;;;;6306419;22;20082;-64
2024/01/14 01:32:18;;;;;;;45.87;25.20;;;3.30;99.90;;;;;;6306449;22;20033;-64
2024/01/14 01:34:44;;;;;;;51.43;26.57;;;3.30;99.90;;;;;;6306778;22;20481;-64
2024/01/14 01:37:10;;;;;;;40.33;24.07;;;3.30;99.90;;;;;;6306959;22;20007;-64
2024/01/14 01:39:36;;;;;;;41.60;25.00;;;3.30;99.90;;;;;;6306502;22;19999;-64
2024/01/14 01:42:01;;;;;;;44.23;25.53;;;3.30;99.90;;;;;;6306695;22;20000;-64
2024/01/14 01:44:27;;;;;;;40.30;25.27;;;3.30;99.90;;;;;;6306750;22;20065;-65
2024/01/14 01:46:54;;;;;;;47.53;25.97;;;3.20;99.90;;;;;;6306625;22;20137;-64
2024/01/14 01:49:21;;;;;;;42.67;25.17;;;3.20;99.90;;;;;;6306446;22;20003;-64
2024/01/14 01:51:48;;;;;;;44.00;25.27;;;3.20;99.90;;;;;;6306787;22;20413;-64
2024/01/14 01:54:18;;;;;;;43.60;25.23;;;3.10;99.90;;;;;;6306698;22;20337;-65
2024/01/14 01:56:44;;;;;;;40.27;24.40;;;3.10;99.90;;;;;;6306774;22;20045;-64
2024/01/14 01:59:12;;;;;;;42.30;26.20;;;3.00;99.90;;;;;;6302992;22;19999;-64
2024/01/14 02:01:38;;;;;;;44.67;26.87;;;3.00;99.90;;;;;;6303175;22;20010;-64
2024/01/14 02:04:07;;;;;;;48.33;26.70;;;3.00;99.90;;;;;;6303922;22;20011;-64
2024/01/14 02:06:33;;;;;;;43.53;25.20;;;3.00;99.90;;;;;;6306198;22;20077;-64
2024/01/14 02:09:00;;;;;;;44.97;25.90;;;2.90;99.90;;;;;;6306959;22;20334;-64
2024/01/14 02:11:26;;;;;;;44.90;27.37;;;2.90;99.90;;;;;;6306979;22;20010;-64
2024/01/14 02:13:52;;;;;;;44.67;27.00;;;2.90;99.90;;;;;;6306160;22;19999;-64
2024/01/14 02:16:20;;;;;;;43.50;25.43;;;2.90;99.90;;;;;;6306327;22;20483;-65
2024/01/14 02:18:46;;;;;;;39.90;25.27;;;2.90;99.90;;;;;;6306716;22;20029;-64
2024/01/14 02:21:17;;;;;;;43.77;24.87;;;2.90;99.90;;;;;;6306275;22;20469;-65
2024/01/14 02:23:46;;;;;;;42.30;25.40;;;3.00;99.90;;;;;;6306495;22;20080;-64
2024/01/14 02:26:11;;;;;;;40.83;23.33;;;3.00;99.90;;;;;;6306246;22;20414;-64
2024/01/14 02:28:39;;;;;;;40.27;22.43;;;3.00;99.90;;;;;;6306609;22;20006;-64
2024/01/14 02:31:05;;;;;;;28.07;17.73;;;3.00;99.90;;;;;;6308484;22;20406;-64
2024/01/14 02:33:31;;;;;;;33.90;17.90;;;3.10;99.90;;;;;;6308263;22;19999;-64
2024/01/14 02:35:56;;;;;;;27.63;17.23;;;3.10;99.90;;;;;;6307871;22;20638;-64
2024/01/14 02:38:22;;;;;;;29.80;17.63;;;3.10;99.90;;;;;;6308063;22;19999;-65
2024/01/14 02:40:48;;;;;;;33.80;19.17;;;3.20;99.90;;;;;;6308428;22;20000;-64
2024/01/14 02:43:14;;;;;;;29.00;17.93;;;3.20;99.90;;;;;;6307696;22;20022;-64
2024/01/14 02:45:39;;;;;;;30.93;17.73;;;3.20;99.90;;;;;;6308223;22;20063;-65
2024/01/14 02:48:06;;;;;;;32.53;16.23;;;3.20;99.90;;;;;;6308138;22;20015;-64
2024/01/14 02:50:31;;;;;;;24.43;15.17;;;3.30;99.90;;;;;;6307985;22;20007;-64
2024/01/14 02:52:57;;;;;;;32.00;16.83;;;3.30;99.90;;;;;;6308144;22;19999;-64
2024/01/14 02:55:23;;;;;;;38.60;20.43;;;3.40;99.90;;;;;;6308213;22;20027;-64
2024/01/14 02:57:49;;;;;;;36.73;21.50;;;3.40;99.90;;;;;;6308597;22;20030;-63
2024/01/14 03:00:15;;;;;;;35.87;21.23;;;3.40;99.90;;;;;;6307865;22;20011;-64
2024/01/14 03:02:41;;;;;;;43.13;21.90;;;3.40;99.90;;;;;;6308190;22;20007;-65
2024/01/14 03:05:07;;;;;;;35.23;20.70;;;3.40;99.90;;;;;;6308008;22;20364;-65
2024/01/14 03:07:33;;;;;;;35.43;22.23;;;3.40;99.90;;;;;;6308319;22;19995;-64
2024/01/14 03:09:59;;;;;;;44.93;23.93;;;3.40;99.90;;;;;;6308138;22;20003;-63
2024/01/14 03:12:24;;;;;;;46.37;24.60;;;3.40;99.90;;;;;;6307835;22;20006;-65
2024/01/14 03:14:50;;;;;;;45.37;26.07;;;3.40;99.90;;;;;;6308194;22;19999;-64
2024/01/14 03:17:16;;;;;;;39.67;25.03;;;3.40;99.90;;;;;;6308153;22;20003;-65
2024/01/14 03:19:41;;;;;;;43.27;25.73;;;3.40;99.90;;;;;;6307831;22;20003;-64
2024/01/14 03:22:07;;;;;;;44.47;26.07;;;3.40;99.90;;;;;;6307944;22;19995;-64
2024/01/14 03:24:33;;;;;;;40.10;24.73;;;3.40;99.90;;;;;;6307537;22;20042;-64
2024/01/14 03:26:59;;;;;;;45.53;25.90;;;3.40;99.90;;;;;;6307726;22;20012;-64
2024/01/14 03:29:24;;;;;;;42.80;25.00;;;3.40;99.90;;;;;;6307724;22;20011;-64
2024/01/14 03:31:50;;;;;;;41.43;25.23;;;3.40;99.90;;;;;;6308256;22;19999;-64
2024/01/14 03:34:16;;;;;;;37.20;23.80;;;3.30;99.90;;;;;;6307824;22;20084;-65
2024/01/14 03:36:42;;;;;;;40.13;25.07;;;3.30;99.90;;;;;;6307889;22;20075;-64
2024/01/14 03:39:07;;;;;;;39.07;24.03;;;3.30;99.90;;;;;;6307818;22;20011;-64
2024/01/14 03:41:33;;;;;;;39.73;24.37;;;3.30;99.90;;;;;;6307503;22;20076;-65
2024/01/14 03:43:59;;;;;;;44.20;25.90;;;3.30;99.90;;;;;;6307648;22;20065;-65
2024/01/14 03:46:25;;;;;;;41.80;24.33;;;3.30;99.90;;;;;;6307107;22;20160;-64
2024/01/14 03:48:50;;;;;;;40.87;24.27;;;3.20;99.90;;;;;;6307935;22;20064;-64
2024/01/14 03:51:16;;;;;;;41.27;23.67;;;3.30;99.90;;;;;;6307726;22;20002;-64
2024/01/14 03:53:42;;;;;;;45.73;23.13;;;3.20;99.90;;;;;;6307627;22;20011;-64
2024/01/14 03:56:08;;;;;;;38.20;24.63;;;3.20;99.90;;;;;;6307671;22;20000;-64
2024/01/14 03:58:33;;;;;;;40.33;25.03;;;3.20;99.90;;;;;;6305902;22;20003;-65
2024/01/14 04:00:59;;;;;;;38.70;23.10;;;3.20;99.90;;;;;;6307418;22;20007;-64
2024/01/14 04:03:25;;;;;;;38.13;21.83;;;3.30;99.90;;;;;;6306959;22;20021;-64
2024/01/14 04:05:50;;;;;;;34.77;19.47;;;3.30;99.90;;;;;;6307073;22;20087;-64
2024/01/14 04:08:16;;;;;;;36.73;21.40;;;3.30;99.90;;;;;;6307344;22;19999;-64
2024/01/14 04:10:42;;;;;;;37.00;21.13;;;3.30;99.90;;;;;;6307360;22;20003;-65
2024/01/14 04:13:08;;;;;;;33.17;20.80;;;3.30;99.90;;;;;;6307705;22;19996;-64
2024/01/14 04:15:33;;;;;;;33.00;19.70;;;3.40;99.90;;;;;;6307512;22;20002;-64
2024/01/14 04:17:59;;;;;;;28.90;17.23;;;3.40;99.90;;;;;;6307226;22;20076;-64
2024/01/14 04:20:25;;;;;;;29.03;18.30;;;3.40;99.90;;;;;;6307060;22;20006;-64
2024/01/14 04:22:51;;;;;;;31.53;19.20;;;3.40;99.90;;;;;;6307426;22;20003;-65
2024/01/14 04:25:16;;;;;;;29.57;18.63;;;3.50;99.90;;;;;;6307407;22;20007;-65
2024/01/14 04:27:42;;;;;;;32.97;19.83;;;3.50;99.90;;;;;;6307560;22;20132;-65
2024/01/14 04:30:09;;;;;;;33.37;19.70;;;3.40;99.90;;;;;;6307486;22;20390;-64
2024/01/14 04:32:35;;;;;;;33.20;19.50;;;3.50;99.90;;;;;;6307003;22;20329;-65
2024/01/14 04:35:01;;;;;;;27.13;18.27;;;3.50;99.90;;;;;;6307104;22;20000;-64
2024/01/14 04:37:27;;;;;;;31.40;18.70;;;3.50;99.90;;;;;;6305617;22;20004;-65
2024/01/14 04:39:54;;;;;;;31.73;19.47;;;3.50;99.90;;;;;;6307118;22;20010;-65
2024/01/14 04:42:20;;;;;;;35.33;19.93;;;3.50;99.90;;;;;;6307168;22;20608;-64
2024/01/14 04:44:45;;;;;;;32.63;18.83;;;3.50;99.90;;;;;;6306952;22;20007;-65
2024/01/14 04:47:11;;;;;;;30.87;17.17;;;3.60;99.90;;;;;;6306912;22;20011;-65
2024/01/14 04:49:37;;;;;;;29.10;16.57;;;3.60;99.90;;;;;;6307413;22;20031;-64
2024/01/14 04:52:03;;;;;;;29.80;18.27;;;3.60;99.90;;;;;;6307005;22;20636;-64
2024/01/14 04:54:29;;;;;;;32.57;18.30;;;3.60;99.90;;;;;;6306889;22;20003;-64
2024/01/14 04:56:55;;;;;;;28.80;17.60;;;3.60;99.90;;;;;;6307136;22;19999;-65
2024/01/14 04:59:21;;;;;;;32.30;18.47;;;3.60;99.90;;;;;;6307049;22;20010;-64
2024/01/14 05:01:46;;;;;;;29.73;17.73;;;3.60;99.90;;;;;;6306658;22;20006;-64
2024/01/14 05:04:12;;;;;;;28.33;16.23;;;3.60;99.90;;;;;;6307332;22;20043;-65
2024/01/14 05:06:38;;;;;;;32.77;17.23;;;3.70;99.90;;;;;;6306975;22;20002;-64
2024/01/14 05:09:04;;;;;;;33.60;19.73;;;3.70;99.90;;;;;;6306966;22;20011;-65
2024/01/14 05:11:30;;;;;;;34.60;20.03;;;3.70;99.90;;;;;;6307076;22;19995;-65
2024/01/14 05:13:55;;;;;;;37.77;20.40;;;3.70;99.90;;;;;;6307241;22;19999;-64
2024/01/14 05:16:21;;;;;;;38.57;19.07;;;3.70;99.90;;;;;;6307046;22;20004;-64
2024/01/14 05:18:47;;;;;;;37.20;20.23;;;3.70;99.90;;;;;;6306840;22;19999;-65
2024/01/14 05:21:16;;;;;;;33.33;19.07;;;3.70;99.90;;;;;;6306651;22;19996;-64
2024/01/14 05:23:45;;;;;;;33.27;19.70;;;3.70;99.90;;;;;;6306389;22;20422;-64
2024/01/14 05:26:12;;;;;;;36.67;19.50;;;3.70;99.90;;;;;;6306495;22;20417;-64
2024/01/14 05:28:37;;;;;;;32.87;20.50;;;3.70;99.90;;;;;;6306763;22;20071;-64
2024/01/14 05:31:03;;;;;;;33.43;18.80;;;3.70;99.90;;;;;;6306634;22;20030;-64
2024/01/14 05:33:29;;;;;;;32.90;19.00;;;3.70;99.90;;;;;;6307092;22;20011;-64
2024/01/14 05:35:55;;;;;;;33.73;18.17;;;3.70;99.90;;;;;;6306503;22;20038;-64
2024/01/14 05:38:20;;;;;;;36.10;20.20;;;3.70;99.90;;;;;;6306695;22;19999;-64
2024/01/14 05:40:46;;;;;;;30.43;19.57;;;3.80;99.90;;;;;;6306652;22;20068;-64
2024/01/14 05:43:12;;;;;;;34.83;19.43;;;3.70;99.90;;;;;;6306402;22;20011;-64
2024/01/14 05:45:39;;;;;;;32.00;20.03;;;3.80;99.90;;;;;;6306311;22;19995;-64
2024/01/14 05:48:06;;;;;;;37.10;20.23;;;3.80;99.90;;;;;;6306490;22;20353;-65
2024/01/14 05:50:31;;;;;;;33.67;19.23;;;3.80;99.90;;;;;;6306558;22;20093;-65
2024/01/14 05:52:57;;;;;;;35.73;20.13;;;3.80;99.90;;;;;;6306426;22;20003;-65
2024/01/14 05:55:23;;;;;;;33.30;20.63;;;3.80;99.90;;;;;;6306931;22;20026;-65
2024/01/14 05:57:48;;;;;;;36.10;20.93;;;3.80;99.90;;;;;;6306726;22;19995;-65
2024/01/14 06:00:15;;;;;;;36.20;21.77;;;3.80;99.90;;;;;;6306573;22;20014;-64
2024/01/14 06:02:40;;;;;;;41.87;23.27;;;3.80;99.90;;;;;;6306137;22;20075;-64
2024/01/14 06:05:07;;;;;;;38.47;23.87;;;3.90;99.90;;;;;;6308036;22;20112;-65
2024/01/14 06:07:32;;;;;;;37.57;23.07;;;3.90;99.90;;;;;;6308506;22;20015;-64
2024/01/14 06:09:58;;;;;;;37.20;23.10;;;3.90;99.90;;;;;;6308448;22;20010;-64
2024/01/14 06:12:24;;;;;;;39.63;24.03;;;3.90;99.90;;;;;;6308770;22;20041;-65
2024/01/14 06:14:50;;;;;;;41.60;24.90;;;3.90;99.90;;;;;;6308599;22;19995;-64
2024/01/14 06:17:15;;;;;;;39.70;23.97;;;3.90;99.90;;;;;;6308530;22;20078;-65
2024/01/14 06:19:42;;;;;;;44.90;26.73;;;3.90;99.90;;;;;;6308263;22;20053;-65
2024/01/14 06:22:07;;;;;;;43.60;26.07;;;3.90;99.90;;;;;;6308362;22;20417;-64
2024/01/14 06:24:34;;;;;;;38.90;24.73;;;4.00;99.90;;;;;;6308247;22;20033;-65
2024/01/14 06:26:59;;;;;;;44.87;24.70;;;4.00;99.90;;;;;;6308080;22;20085;-64
2024/01/14 06:29:25;;;;;;;41.10;24.60;;;4.00;99.90;;;;;;6308281;22;20011;-64
2024/01/14 06:31:51;;;;;;;41.00;25.97;;;4.00;99.90;;;;;;6308482;22;19995;-64
2024/01/14 06:34:16;;;;;;;43.43;26.40;;;4.00;99.90;;;;;;6308684;22;20000;-64
2024/01/14 06:36:42;;;;;;;41.00;25.57;;;4.00;99.90;;;;;;6308456;22;20003;-64
2024/01/14 06:39:08;;;;;;;42.20;25.17;;;4.00;99.90;;;;;;6308462;22;20079;-64
2024/01/14 06:41:34;;;;;;;43.43;26.60;;;4.00;99.90;;;;;;6308452;22;20324;-64
2024/01/14 06:44:00;;;;;;;43.37;26.70;;;4.10;99.90;;;;;;6308666;22;20011;-64
2024/01/14 06:46:25;;;;;;;47.33;26.83;;;4.10;99.90;;;;;;6308065;22;20015;-64
2024/01/14 06:48:51;;;;;;;49.20;27.47;;;4.10;99.90;;;;;;6307991;22;20007;-64
2024/01/14 06:51:17;;;;;;;47.03;26.83;;;4.10;99.90;;;;;;6307905;22;19999;-64
2024/01/14 06:53:43;;;;;;;48.93;27.13;;;4.10;99.90;;;;;;6308156;22;20000;-64
2024/01/14 06:56:09;;;;;;;42.10;26.07;;;4.10;99.90;;;;;;6308477;22;20037;-64
2024/01/14 06:58:35;;;;;;;46.63;26.87;;;4.10;99.90;;;;;;6307906;22;20003;-64
2024/01/14 07:01:03;;;;;;;48.93;27.90;;;4.20;99.90;;;;;;6308203;22;19999;-65
2024/01/14 07:03:29;;;;;;;51.73;29.93;;;4.10;99.90;;;;;;6308386;22;20019;-64
2024/01/14 07:05:55;;;;;;;46.13;27.77;;;4.10;99.90;;;;;;6308043;22;20297;-65
2024/01/14 07:08:20;;;;;;;50.50;28.70;;;4.20;99.90;;;;;;6308046;22;20023;-64
2024/01/14 07:10:46;;;;;;;47.30;29.03;;;4.20;99.90;;;;;;6308288;22;20014;-64
2024/01/14 07:13:13;;;;;;;54.20;32.83;;;4.20;99.90;;;;;;6307890;22;20058;-63
2024/01/14 07:15:39;;;;;;;72.13;40.67;;;4.20;99.90;;;;;;6307380;22;20035;-65
2024/01/14 07:18:04;;;;;;;56.70;33.90;;;4.20;99.90;;;;;;6307701;22;20007;-65
2024/01/14 07:20:30;;;;;;;54.10;35.00;;;4.20;99.90;;;;;;6307697;22;19999;-64
2024/01/14 07:22:56;;;;;;;45.83;28.93;;;4.20;99.90;;;;;;6307321;22;20007;-64
2024/01/14 07:25:22;;;;;;;45.53;25.80;;;4.20;99.90;;;;;;6307312;22;20387;-64
2024/01/14 07:27:48;;;;;;;37.47;25.00;;;4.20;99.90;;;;;;6307577;22;20082;-65
2024/01/14 07:30:14;;;;;;;40.47;24.83;;;4.20;99.90;;;;;;6307848;22;20433;-64
2024/01/14 07:32:40;;;;;;;49.90;26.60;;;4.20;99.90;;;;;;6307901;22;20031;-65
2024/01/14 07:35:06;;;;;;;45.80;27.27;;;4.20;99.90;;;;;;6307993;22;19999;-65
2024/01/14 07:37:33;;;;;;;47.50;29.60;;;4.20;99.90;;;;;;6307927;22;20041;-65
2024/01/14 07:40:00;;;;;;;46.70;29.03;;;4.20;99.90;;;;;;6307484;22;20094;-64
2024/01/14 07:42:26;;;;;;;44.83;28.13;;;4.20;99.90;;;;;;6307792;22;20413;-64
2024/01/14 07:44:53;;;;;;;47.80;30.30;;;4.20;99.90;;;;;;6308026;22;20011;-65
2024/01/14 07:47:19;;;;;;;48.13;28.73;;;4.20;99.90;;;;;;6307337;22;20018;-65
2024/01/14 07:49:48;;;;;;;47.33;29.03;;;4.20;99.90;;;;;;6307461;22;20092;-65
2024/01/14 07:52:17;;;;;;;46.13;28.80;;;4.20;99.90;;;;;;6306121;22;20074;-65
2024/01/14 07:54:43;;;;;;;45.87;29.43;;;4.20;99.90;;;;;;6307613;22;19999;-65
2024/01/14 07:57:09;;;;;;;54.93;31.17;;;4.30;99.90;;;;;;6307551;22;20425;-65
2024/01/14 07:59:35;;;;;;;48.57;32.37;;;4.30;99.90;;;;;;6307888;22;19999;-65
2024/01/14 08:02:01;;;;;;;50.10;31.47;;;4.30;99.90;;;;;;6307349;22;20068;-64
2024/01/14 08:04:27;;;;;;;52.30;29.80;;;4.30;99.90;;;;;;6307394;22;20011;-65
2024/01/14 08:06:52;;;;;;;52.23;31.67;;;4.30;99.90;;;;;;6307451;22;19995;-64
2024/01/14 08:09:19;;;;;;;54.10;32.90;;;4.30;99.90;;;;;;6307541;22;20078;-64
2024/01/14 08:11:45;;;;;;;53.40;31.07;;;4.40;99.90;;;;;;6307325;22;20145;-63
2024/01/14 08:14:11;;;;;;;50.37;32.60;;;4.40;99.90;;;;;;6307579;22;20026;-67
2024/01/14 08:16:37;;;;;;;56.40;33.80;;;4.40;99.90;;;;;;6307507;22;20049;-64
2024/01/14 08:19:03;;;;;;;53.87;33.73;;;4.40;99.90;;;;;;6307228;22;20050;-64
2024/01/14 08:21:28;;;;;;;58.27;34.43;;;4.50;99.90;;;;;;6307244;22;20003;-64
2024/01/14 08:23:54;;;;;;;62.57;36.90;;;4.50;99.90;;;;;;6307360;22;20395;-64
2024/01/14 08:26:20;;;;;;;56.87;34.93;;;4.50;99.90;;;;;;6306638;22;20022;-64
2024/01/14 08:28:46;;;;;;;56.57;34.67;;;4.50;99.90;;;;;;6307264;22;20003;-64
2024/01/14 08:31:12;;;;;;;61.97;36.43;;;4.50;99.90;;;;;;6307474;22;20299;-64
2024/01/14 08:33:41;;;;;;;54.70;35.30;;;4.50;99.90;;;;;;6306979;22;20003;-64
2024/01/14 08:36:08;;;;;;;53.97;34.13;;;4.50;99.90;;;;;;6307565;22;19999;-65
2024/01/14 08:38:35;;;;;;;61.60;36.37;;;4.60;99.90;;;;;;6307240;22;20070;-64
2024/01/14 08:41:00;;;;;;;50.70;32.53;;;4.60;99.90;;;;;;6307446;22;20053;-64
2024/01/14 08:43:26;;;;;;;51.90;33.20;;;4.60;99.90;;;;;;6307646;22;20007;-64
2024/01/14 08:45:52;;;;;;;62.93;34.10;;;4.60;99.90;;;;;;6307371;22;20007;-65
2024/01/14 08:48:18;;;;;;;54.67;34.70;;;4.60;99.90;;;;;;6306863;22;20011;-64
2024/01/14 08:50:43;;;;;;;54.27;33.57;;;4.60;99.90;;;;;;6306894;22;19999;-65
2024/01/14 08:53:09;;;;;;;55.80;34.03;;;4.60;99.90;;;;;;6307106;22;19999;-64
2024/01/14 08:55:35;;;;;;;110.13;51.20;;;4.60;99.90;;;;;;6307084;22;20169;-65
2024/01/14 08:58:01;;;;;;;65.93;36.73;;;4.60;99.90;;;;;;6306908;22;20011;-64
2024/01/14 09:00:26;;;;;;;53.63;31.37;;;4.60;99.90;;;;;;6279382;22;19995;-65
2024/01/14 09:02:52;;;;;;;52.67;31.00;;;4.60;99.90;;;;;;6306661;22;20005;-65
2024/01/14 09:05:18;;;;;;;59.27;31.20;;;4.70;99.90;;;;;;6306767;22;20078;-65
2024/01/14 09:07:44;;;;;;;50.77;29.87;;;4.60;99.90;;;;;;6306388;22;19995;-64
2024/01/14 09:10:10;;;;;;;48.80;30.17;;;4.70;99.90;;;;;;6306146;22;20003;-65
2024/01/14 09:12:36;;;;;;;52.63;30.57;;;4.70;99.90;;;;;;6306657;22;20022;-64
2024/01/14 09:15:02;;;;;;;49.87;31.00;;;4.70;99.90;;;;;;6306760;22;20278;-65
2024/01/14 09:17:27;;;;;;;52.03;29.80;;;4.70;99.90;;;;;;6306770;22;19996;-64
2024/01/14 09:19:53;;;;;;;50.20;29.90;;;4.70;99.90;;;;;;6306970;22;20022;-65
2024/01/14 09:22:19;;;;;;;53.73;32.50;;;4.70;99.90;;;;;;6306785;22;20003;-64
2024/01/14 09:24:46;;;;;;;64.27;35.03;;;4.80;99.90;;;;;;6306557;22;20069;-65
2024/01/14 09:27:15;;;;;;;56.43;33.20;;;4.80;99.90;;;;;;6306683;22;19995;-65
2024/01/14 09:29:41;;;;;;;64.63;33.40;;;4.80;99.90;;;;;;6306930;22;20397;-65
2024/01/14 09:32:07;;;;;;;72.47;38.63;;;4.80;99.90;;;;;;6307077;22;19995;-65
2024/01/14 09:34:33;;;;;;;62.40;35.20;;;4.80;99.90;;;;;;6302930;22;20378;-64
2024/01/14 09:36:59;;;;;;;55.37;33.23;;;4.80;99.90;;;;;;6303183;22;20430;-65
2024/01/14 09:39:25;;;;;;;56.23;33.40;;;4.80;99.90;;;;;;6307177;22;20003;-64
2024/01/14 09:42:19;;;;;;;51.70;30.27;;;4.80;99.90;;;;;;6308869;22;20064;-64
2024/01/14 09:44:46;;;;;;;47.90;29.07;;;4.80;99.90;;;;;;6308929;22;20101;-64
2024/01/14 09:47:14;;;;;;;47.83;29.03;;;4.90;99.90;;;;;;6307509;22;20043;-64
2024/01/14 09:49:41;;;;;;;43.97;27.67;;;4.80;99.90;;;;;;6306297;22;20004;-65
2024/01/14 09:52:09;;;;;;;44.93;28.00;;;4.80;99.90;;;;;;6306476;22;19999;-64
2024/01/14 09:54:35;;;;;;;46.53;29.20;;;4.90;99.90;;;;;;6306213;22;20082;-64
2024/01/14 09:57:09;;;;;;;48.13;29.87;;;4.90;99.90;;;;;;6306176;22;20027;-66
2024/01/14 09:59:35;;;;;;;50.17;30.33;;;4.90;99.90;;;;;;6302395;22;20056;-65
2024/01/14 10:02:03;;;;;;;45.40;28.40;;;4.90;99.90;;;;;;6302570;22;20000;-64
2024/01/14 10:04:29;;;;;;;44.57;28.80;;;4.90;99.90;;;;;;6303624;22;20015;-65
2024/01/14 10:06:56;;;;;;;44.70;29.20;;;4.90;99.90;;;;;;6305665;22;20430;-64
2024/01/14 10:09:23;;;;;;;47.07;27.83;;;4.90;99.90;;;;;;6306709;22;20007;-64
2024/01/14 10:11:50;;;;;;;46.47;27.90;;;4.90;99.90;;;;;;6306772;22;20000;-64
2024/01/14 10:14:16;;;;;;;44.57;27.53;;;4.90;99.90;;;;;;6306209;22;20007;-64
2024/01/14 10:16:41;;;;;;;44.03;27.63;;;4.90;99.90;;;;;;6306221;22;20004;-65
2024/01/14 10:19:07;;;;;;;45.53;26.10;;;4.90;99.90;;;;;;6306382;22;20330;-65
2024/01/14 10:21:33;;;;;;;42.00;25.67;;;4.90;99.90;;;;;;6306199;22;19996;-65
2024/01/14 10:24:01;;;;;;;43.33;27.17;;;4.90;99.90;;;;;;6306220;22;20012;-64
2024/01/14 10:26:27;;;;;;;44.67;26.73;;;4.90;99.90;;;;;;6306044;22;19995;-65
2024/01/14 10:28:52;;;;;;;43.50;26.60;;;4.90;99.90;;;;;;6306060;22;20010;-65
2024/01/14 10:31:18;;;;;;;40.50;25.67;;;4.90;99.90;;;;;;6306859;22;20008;-64
2024/01/14 10:33:44;;;;;;;46.30;27.60;;;4.90;99.90;;;;;;6306337;22;20003;-64
2024/01/14 10:36:10;;;;;;;47.17;27.60;;;4.90;99.90;;;;;;6306255;22;20444;-65
2024/01/14 10:38:36;;;;;;;48.13;28.23;;;4.90;99.90;;;;;;6306392;22;19999;-65
2024/01/14 10:41:03;;;;;;;50.37;29.43;;;4.90;99.90;;;;;;6306022;22;20007;-64
2024/01/14 10:43:29;;;;;;;50.80;30.53;;;4.90;99.90;;;;;;6306241;22;20065;-67
2024/01/14 10:45:57;;;;;;;44.10;28.70;;;4.90;99.90;;;;;;6306101;22;20004;-64
2024/01/14 10:48:27;;;;;;;52.00;30.43;;;4.90;99.90;;;;;;6253371;22;1241326;-65
2024/01/14 10:50:56;;;;;;;42.57;27.03;;;4.90;99.90;;;;;;6307735;22;20229;-64
2024/01/14 10:53:33;;;;;;;45.10;27.70;;;4.90;99.90;;;;;;6307968;22;20000;-64
2024/01/14 10:56:01;;;;;;;43.30;26.93;;;5.00;99.90;;;;;;6307641;22;20012;-64
2024/01/14 10:58:29;;;;;;;46.60;27.77;;;5.00;99.90;;;;;;6308147;22;20035;-64
2024/01/14 11:00:59;;;;;;;45.80;28.20;;;5.00;99.90;;;;;;6308240;22;20030;-65
2024/01/14 11:03:26;;;;;;;47.53;28.90;;;5.00;99.90;;;;;;6308083;22;20068;-65
2024/01/14 11:05:53;;;;;;;56.37;30.30;;;5.00;99.90;;;;;;6307985;22;20010;-64
2024/01/14 11:08:21;;;;;;;49.87;29.73;;;5.00;99.90;;;;;;6308231;22;20425;-65
2024/01/14 11:10:49;;;;;;;47.50;29.03;;;5.00;99.90;;;;;;6307653;22;20426;-64
2024/01/14 11:13:45;;;;;;;49.93;27.40;;;5.00;99.90;;;;;;6307929;22;20019;-65
2024/01/14 11:16:23;;;;;;;43.93;26.77;;;5.00;99.90;;;;;;6305854;22;19999;-66
2024/01/14 11:18:52;;;;;;;43.70;28.50;;;5.00;99.90;;;;;;6304244;22;20118;-65
2024/01/14 11:21:36;;;;;;;46.20;26.37;;;5.10;99.90;;;;;;6276926;22;20722;-66
2024/01/14 11:24:02;;;;;;;49.30;27.10;;;5.10;99.90;;;;;;6307298;22;20007;-64
2024/01/14 11:26:28;;;;;;;45.97;27.90;;;5.10;99.90;;;;;;6307890;22;20444;-63
2024/01/14 11:28:57;;;;;;;48.00;27.67;;;5.10;99.90;;;;;;6307386;22;20000;-65
2024/01/14 11:32:01;;;;;;;47.37;29.00;;;5.10;99.90;;;;;;6307419;22;20000;-65
2024/01/14 11:34:45;;;;;;;46.87;27.67;;;5.10;99.90;;;;;;6307378;22;20010;-63
2024/01/14 11:37:40;;;;;;;50.07;29.17;;;5.10;99.90;;;;;;6307320;22;20117;-64
2024/01/14 11:40:06;;;;;;;52.57;31.37;;;5.10;99.90;;;;;;6279503;22;20007;-64
2024/01/14 11:42:32;;;;;;;56.93;33.53;;;5.10;99.90;;;;;;6307627;22;20010;-64
2024/01/14 11:45:02;;;;;;;57.50;32.23;;;5.10;99.90;;;;;;6305182;22;20015;-64
2024/01/14 11:47:42;;;;;;;55.47;31.77;;;5.10;99.90;;;;;;6304025;22;20011;-63
2024/01/14 11:50:10;;;;;;;57.47;36.50;;;5.10;99.90;;;;;;6303539;22;20011;-64
2024/01/14 11:52:42;;;;;;;56.03;32.23;;;5.10;99.90;;;;;;6304245;22;20486;-64
2024/01/14 11:55:12;;;;;;;43.87;27.73;;;5.20;99.90;;;;;;6304318;22;20038;-64
2024/01/14 11:57:37;;;;;;;48.33;25.97;;;5.20;99.90;;;;;;6278907;22;20057;-68
2024/01/14 12:00:06;;;;;;;49.10;28.90;;;5.20;99.90;;;;;;6304304;22;20422;-64
2024/01/14 12:02:31;;;;;;;47.13;28.53;;;5.20;99.90;;;;;;6304136;22;20014;-64
2024/01/14 12:05:13;;;;;;;46.03;27.27;;;5.20;99.90;;;;;;6307551;22;20015;-64
2024/01/14 12:07:39;;;;;;;48.83;29.00;;;5.20;99.90;;;;;;6307157;22;20414;-63
2024/01/14 12:10:05;;;;;;;49.70;29.57;;;5.20;99.90;;;;;;6307562;22;20003;-63
2024/01/14 12:12:31;;;;;;;50.53;29.20;;;5.20;99.90;;;;;;6307506;22;20034;-63
2024/01/14 12:14:56;;;;;;;54.40;31.03;;;5.20;99.90;;;;;;6307285;22;20078;-64
2024/01/14 12:17:22;;;;;;;48.43;29.77;;;5.20;99.90;;;;;;6307408;22;20053;-63
2024/01/14 12:20:00;;;;;;;49.90;27.80;;;5.20;99.90;;;;;;6307055;22;20085;-63
2024/01/14 12:22:26;;;;;;;42.57;24.67;;;5.20;99.90;;;;;;6306983;22;20074;-65
2024/01/14 12:24:52;;;;;;;42.73;25.83;;;5.20;99.90;;;;;;6303238;22;20084;-64
2024/01/14 12:27:17;;;;;;;43.10;24.60;;;5.20;99.90;;;;;;6303589;22;20048;-64
2024/01/14 12:29:43;;;;;;;42.40;25.40;;;5.20;99.90;;;;;;6305451;22;20299;-64
2024/01/14 12:32:10;;;;;;;50.40;26.83;;;5.20;99.90;;;;;;6306879;22;20000;-64
2024/01/14 12:34:41;;;;;;;50.20;31.83;;;5.20;99.90;;;;;;6307196;22;20003;-65